createdAt,value
2018-04-15T00:00:30.023Z,9.00
2018-04-15T00:02:57.576Z,3.87
2018-04-15T00:05:25.354Z,3.97
2018-04-15T00:07:53.821Z,4.50
2018-04-15T00:10:20.591Z,4.10
2018-04-15T00:12:47.401Z,4.40
2018-04-15T00:15:14.328Z,4.87
2018-04-15T00:17:40.924Z,4.70
2018-04-15T00:20:07.663Z,5.07
2018-04-15T00:22:34.237Z,4.90
2018-04-15T00:25:00.844Z,4.83
2018-04-15T00:27:27.463Z,5.30
2018-04-15T00:29:54.063Z,5.50
2018-04-15T00:32:20.646Z,5.80
2018-04-15T00:34:47.285Z,5.07
2018-04-15T00:37:13.889Z,5.30
2018-04-15T00:39:40.482Z,5.10
2018-04-15T00:42:07.090Z,4.57
2018-04-15T00:44:33.728Z,5.27
2018-04-15T00:47:00.308Z,5.70
2018-04-15T00:49:27.019Z,4.90
2018-04-15T00:51:53.887Z,4.90
2018-04-15T00:54:20.491Z,5.50
2018-04-15T00:56:47.098Z,4.83
2018-04-15T00:59:13.697Z,4.53
2018-04-15T01:01:40.352Z,4.67
2018-04-15T01:04:06.955Z,4.40
2018-04-15T01:06:33.569Z,4.03
2018-04-15T01:09:00.234Z,4.33
2018-04-15T01:11:26.865Z,4.10
2018-04-15T01:13:53.447Z,3.70
2018-04-15T01:16:20.058Z,4.30
2018-04-15T01:18:46.670Z,3.87
2018-04-15T01:21:13.520Z,4.60
2018-04-15T01:23:40.142Z,4.30
2018-04-15T01:26:06.722Z,4.37
2018-04-15T01:28:33.332Z,4.03
2018-04-15T01:30:59.942Z,4.37
2018-04-15T01:33:26.538Z,4.67
2018-04-15T01:35:53.126Z,4.70
2018-04-15T01:38:19.750Z,4.53
2018-04-15T01:40:46.319Z,4.67
2018-04-15T01:43:12.947Z,4.63
2018-04-15T01:45:39.862Z,4.23
2018-04-15T01:48:06.489Z,4.30
2018-04-15T01:50:33.084Z,5.10
2018-04-15T01:52:59.693Z,4.60
2018-04-15T01:55:26.307Z,3.90
2018-04-15T01:57:52.960Z,4.13
2018-04-15T02:00:19.561Z,4.63
2018-04-15T02:02:46.167Z,4.87
2018-04-15T02:05:12.778Z,4.27
2018-04-15T02:07:39.373Z,4.70
2018-04-15T02:10:05.987Z,4.10
2018-04-15T02:12:32.597Z,4.13
2018-04-15T02:14:59.211Z,4.60
2018-04-15T02:17:25.789Z,4.90
2018-04-15T02:19:52.646Z,3.80
2018-04-15T02:22:19.237Z,3.83
2018-04-15T02:24:46.018Z,4.70
2018-04-15T02:27:12.602Z,4.70
2018-04-15T02:29:39.296Z,4.50
2018-04-15T02:32:05.830Z,4.40
2018-04-15T02:34:32.474Z,4.40
2018-04-15T02:36:59.058Z,4.53
2018-04-15T02:39:25.694Z,4.53
2018-04-15T02:41:52.283Z,4.67
2018-04-15T02:44:18.921Z,4.40
2018-04-15T02:46:45.531Z,4.87
2018-04-15T02:49:12.187Z,3.93
2018-04-15T02:51:39.131Z,3.90
2018-04-15T02:54:06.662Z,4.10
2018-04-15T02:56:33.284Z,4.27
2018-04-15T02:59:00.246Z,4.30
2018-04-15T03:01:26.883Z,3.67
2018-04-15T03:03:53.558Z,4.10
2018-04-15T03:06:20.157Z,3.60
2018-04-15T03:08:46.772Z,3.50
2018-04-15T03:11:13.395Z,3.77
2018-04-15T03:13:40.048Z,4.10
2018-04-15T03:16:06.633Z,4.13
2018-04-15T03:18:33.524Z,4.53
2018-04-15T03:21:00.121Z,4.13
2018-04-15T03:23:26.702Z,4.00
2018-04-15T03:25:53.364Z,4.30
2018-04-15T03:28:20.253Z,4.00
2018-04-15T03:30:46.865Z,3.90
2018-04-15T03:33:14.012Z,4.87
2018-04-15T03:35:40.708Z,4.10
2018-04-15T03:38:07.294Z,4.17
2018-04-15T03:40:33.891Z,3.53
2018-04-15T03:43:00.530Z,3.67
2018-04-15T03:45:27.163Z,3.63
2018-04-15T03:47:53.775Z,3.80
2018-04-15T03:50:20.618Z,4.03
2018-04-15T03:52:47.268Z,3.70
2018-04-15T03:55:13.872Z,4.40
2018-04-15T03:57:40.484Z,5.40
2018-04-15T04:00:07.093Z,4.30
2018-04-15T04:02:33.872Z,5.03
2018-04-15T04:05:00.472Z,5.40
2018-04-15T04:07:27.071Z,5.47
2018-04-15T04:09:53.668Z,5.77
2018-04-15T04:12:20.288Z,5.57
2018-04-15T04:14:46.898Z,5.23
2018-04-15T04:17:13.728Z,5.60
2018-04-15T04:19:46.124Z,4.70
2018-04-15T04:22:19.707Z,5.33
2018-04-15T04:24:52.178Z,5.07
2018-04-15T04:27:18.761Z,5.40
2018-04-15T04:29:45.384Z,5.83
2018-04-15T04:32:11.975Z,5.87
2018-04-15T04:34:39.375Z,5.90
2018-04-15T04:37:05.962Z,6.10
2018-04-15T04:39:32.575Z,6.30
2018-04-15T04:41:59.191Z,5.27
2018-04-15T04:44:25.833Z,5.90
2018-04-15T04:46:52.428Z,5.53
2018-04-15T04:49:19.026Z,5.30
2018-04-15T04:51:45.637Z,5.90
2018-04-15T04:54:12.233Z,5.40
2018-04-15T04:56:38.827Z,6.03
2018-04-15T04:59:05.479Z,6.10
2018-04-15T05:01:32.090Z,5.43
2018-04-15T05:03:58.673Z,6.47
2018-04-15T05:06:25.297Z,6.50
2018-04-15T05:08:52.183Z,6.07
2018-04-15T05:11:18.780Z,6.70
2018-04-15T05:13:45.370Z,7.10
2018-04-15T05:16:12.003Z,6.87
2018-04-15T05:18:38.593Z,6.20
2018-04-15T05:21:05.449Z,5.77
2018-04-15T05:23:32.039Z,5.97
2018-04-15T05:25:58.651Z,6.30
2018-04-15T05:28:25.243Z,6.00
2018-04-15T05:30:51.855Z,5.93
2018-04-15T05:33:18.467Z,5.30
2018-04-15T05:35:45.055Z,5.20
2018-04-15T05:38:11.646Z,4.50
2018-04-15T05:40:38.260Z,5.30
2018-04-15T05:43:04.903Z,4.70
2018-04-15T05:45:31.496Z,5.17
2018-04-15T05:47:58.106Z,4.23
2018-04-15T05:50:24.724Z,4.73
2018-04-15T05:52:51.328Z,5.17
2018-04-15T05:55:17.922Z,5.10
2018-04-15T05:57:44.548Z,4.90
2018-04-15T06:00:11.281Z,5.40
2018-04-15T06:02:37.905Z,5.80
2018-04-15T06:05:04.496Z,5.30
2018-04-15T06:07:31.108Z,5.60
2018-04-15T06:09:57.724Z,5.60
2018-04-15T06:12:24.332Z,5.13
2018-04-15T06:14:50.982Z,4.90
2018-04-15T06:17:17.531Z,5.30
2018-04-15T06:19:44.173Z,5.57
2018-04-15T06:22:10.742Z,5.33
2018-04-15T06:24:37.384Z,5.53
2018-04-15T06:27:03.977Z,4.93
2018-04-15T06:29:30.618Z,5.40
2018-04-15T06:31:57.222Z,5.50
2018-04-15T06:34:23.829Z,5.43
2018-04-15T06:36:50.431Z,5.33
2018-04-15T06:39:17.003Z,6.00
2018-04-15T06:41:43.598Z,5.23
2018-04-15T06:44:10.205Z,5.63
2018-04-15T06:46:36.815Z,5.50
2018-04-15T06:49:03.446Z,5.60
2018-04-15T06:51:30.085Z,5.00
2018-04-15T06:53:56.682Z,5.47
2018-04-15T06:56:23.358Z,5.83
2018-04-15T06:58:50.059Z,5.77
2018-04-15T07:01:16.639Z,6.80
2018-04-15T07:03:43.269Z,5.50
2018-04-15T07:06:09.914Z,5.63
2018-04-15T07:08:36.540Z,5.10
2018-04-15T07:11:03.151Z,5.67
2018-04-15T07:13:29.735Z,5.30
2018-04-15T07:15:56.377Z,5.93
2018-04-15T07:18:22.971Z,5.83
2018-04-15T07:20:49.599Z,5.43
2018-04-15T07:23:16.177Z,5.57
2018-04-15T07:25:42.813Z,5.70
2018-04-15T07:28:09.681Z,6.03
2018-04-15T07:30:36.345Z,5.70
2018-04-15T07:33:03.044Z,5.50
2018-04-15T07:35:29.651Z,5.43
2018-04-15T07:37:56.278Z,5.83
2018-04-15T07:40:22.925Z,5.97
2018-04-15T07:42:49.523Z,6.00
2018-04-15T07:45:16.164Z,5.40
2018-04-15T07:47:42.814Z,5.77
2018-04-15T07:50:09.423Z,5.53
2018-04-15T07:52:36.371Z,5.07
2018-04-15T07:55:02.967Z,4.60
2018-04-15T07:57:29.620Z,5.00
2018-04-15T07:59:56.232Z,5.17
2018-04-15T08:02:22.856Z,4.67
2018-04-15T08:04:50.021Z,5.23
2018-04-15T08:07:16.753Z,5.13
2018-04-15T08:09:43.364Z,6.47
2018-04-15T08:12:10.294Z,5.33
2018-04-15T08:14:37.269Z,6.33
2018-04-15T08:17:03.888Z,5.40
2018-04-15T08:19:30.586Z,5.83
2018-04-15T08:21:57.269Z,5.80
2018-04-15T08:24:23.957Z,5.83
2018-04-15T08:26:50.596Z,5.73
2018-04-15T08:29:17.394Z,5.27
2018-04-15T08:31:44.180Z,5.97
2018-04-15T08:34:10.786Z,5.60
2018-04-15T08:36:37.392Z,6.10
2018-04-15T08:39:04.033Z,5.57
2018-04-15T08:41:30.635Z,5.70
2018-04-15T08:43:57.287Z,6.03
2018-04-15T08:46:23.903Z,5.87
2018-04-15T08:48:50.518Z,5.10
2018-04-15T08:51:17.155Z,5.70
2018-04-15T08:53:43.774Z,5.57
2018-04-15T08:56:10.499Z,5.03
2018-04-15T08:58:37.142Z,5.03
2018-04-15T09:01:03.723Z,4.87
2018-04-15T09:03:30.416Z,5.10
2018-04-15T09:05:57.003Z,6.20
2018-04-15T09:08:23.800Z,5.33
2018-04-15T09:10:50.463Z,5.30
2018-04-15T09:13:17.433Z,5.63
2018-04-15T09:15:44.969Z,5.07
2018-04-15T09:18:11.660Z,4.80
2018-04-15T09:20:38.779Z,4.07
2018-04-15T09:23:05.388Z,4.80
2018-04-15T09:25:32.032Z,5.03
2018-04-15T09:27:58.623Z,5.00
2018-04-15T09:30:25.314Z,4.63
2018-04-15T09:32:51.933Z,4.57
2018-04-15T09:35:18.535Z,5.13
2018-04-15T09:37:45.232Z,4.90
2018-04-15T09:40:11.819Z,4.40
2018-04-15T09:42:38.519Z,5.00
2018-04-15T09:45:05.110Z,4.50
2018-04-15T09:47:31.744Z,4.30
2018-04-15T09:49:58.321Z,4.67
2018-04-15T09:52:24.951Z,4.80
2018-04-15T09:54:51.554Z,4.40
2018-04-15T09:57:18.288Z,5.50
2018-04-15T09:59:44.938Z,5.47
2018-04-15T10:02:11.555Z,5.07
2018-04-15T10:04:38.180Z,4.70
2018-04-15T10:07:04.787Z,5.20
2018-04-15T10:09:31.432Z,4.70
2018-04-15T10:11:58.047Z,5.20
2018-04-15T10:14:24.672Z,3.97
2018-04-15T10:16:51.528Z,4.90
2018-04-15T10:19:18.206Z,5.50
2018-04-15T10:21:44.826Z,5.37
2018-04-15T10:24:12.287Z,5.80
2018-04-15T10:26:39.017Z,4.57
2018-04-15T10:29:06.146Z,5.40
2018-04-15T10:31:33.361Z,5.07
2018-04-15T10:34:00.829Z,5.30
2018-04-15T10:36:27.959Z,5.80
2018-04-15T10:38:56.621Z,4.97
2018-04-15T10:41:23.508Z,5.10
2018-04-15T10:43:51.082Z,5.40
2018-04-15T10:46:19.045Z,5.00
2018-04-15T10:48:45.927Z,5.83
2018-04-15T10:51:12.985Z,5.00
2018-04-15T10:53:39.878Z,4.90
2018-04-15T10:56:06.554Z,5.57
2018-04-15T10:58:33.206Z,5.37
2018-04-15T11:01:00.233Z,5.50
2018-04-15T11:03:28.695Z,5.80
2018-04-15T11:05:55.562Z,5.20
2018-04-15T11:08:22.485Z,5.13
2018-04-15T11:10:50.235Z,5.03
2018-04-15T11:13:20.643Z,5.20
2018-04-15T11:15:47.293Z,4.83
2018-04-15T11:18:14.013Z,5.60
2018-04-15T11:20:40.687Z,5.60
2018-04-15T11:23:07.327Z,5.03
2018-04-15T11:25:34.146Z,5.20
2018-04-15T11:28:00.747Z,5.03
2018-04-15T11:30:27.529Z,5.70
2018-04-15T11:32:54.218Z,4.70
2018-04-15T11:35:20.855Z,4.47
2018-04-15T11:37:47.458Z,5.00
2018-04-15T11:40:14.128Z,4.90
2018-04-15T11:42:41.119Z,4.80
2018-04-15T11:45:07.906Z,5.30
2018-04-15T11:47:34.472Z,5.20
2018-04-15T11:50:01.095Z,5.27
2018-04-15T11:52:27.947Z,4.80
2018-04-15T11:54:54.771Z,4.57
2018-04-15T11:57:21.367Z,4.80
2018-04-15T11:59:47.979Z,4.30
2018-04-15T12:02:14.621Z,4.87
2018-04-15T12:04:41.288Z,5.10
2018-04-15T12:07:08.141Z,4.87
2018-04-15T12:09:34.964Z,4.60
2018-04-15T12:12:02.676Z,3.60
2018-04-15T12:14:29.438Z,4.20
2018-04-15T12:16:56.075Z,4.00
2018-04-15T12:19:22.758Z,3.57
2018-04-15T12:21:49.623Z,3.83
2018-04-15T12:24:16.285Z,3.70
2018-04-15T12:26:42.923Z,3.93
2018-04-15T12:29:09.577Z,3.40
2018-04-15T12:31:36.182Z,3.60
2018-04-15T12:34:03.245Z,3.87
2018-04-15T12:36:29.860Z,3.50
2018-04-15T12:38:56.448Z,4.10
2018-04-15T12:41:23.142Z,4.00
2018-04-15T12:43:49.826Z,3.67
2018-04-15T12:46:16.440Z,3.13
2018-04-15T12:48:43.203Z,3.03
2018-04-15T12:51:09.956Z,3.33
2018-04-15T12:53:36.678Z,2.63
2018-04-15T12:56:03.297Z,2.90
2018-04-15T12:58:29.960Z,2.63
2018-04-15T13:00:56.578Z,2.20
2018-04-15T13:03:23.268Z,2.57
2018-04-15T13:05:49.953Z,2.50
2018-04-15T13:08:16.548Z,2.40
2018-04-15T13:10:43.155Z,2.37
2018-04-15T13:13:09.804Z,2.50
2018-04-15T13:15:36.634Z,2.73
2018-04-15T13:18:03.316Z,2.10
2018-04-15T13:20:29.965Z,2.67
2018-04-15T13:22:56.566Z,2.50
2018-04-15T13:25:23.258Z,2.63
2018-04-15T13:27:50.104Z,2.10
2018-04-15T13:30:16.915Z,2.53
2018-04-15T13:32:43.711Z,2.80
2018-04-15T13:35:10.531Z,3.10
2018-04-15T13:37:37.181Z,2.17
2018-04-15T13:40:03.933Z,2.37
2018-04-15T13:42:30.583Z,2.13
2018-04-15T13:44:57.182Z,2.03
2018-04-15T13:47:23.812Z,2.20
2018-04-15T13:49:50.438Z,2.40
2018-04-15T13:52:17.101Z,2.07
2018-04-15T13:54:43.769Z,2.20
2018-04-15T13:57:10.510Z,2.30
2018-04-15T13:59:37.119Z,2.07
2018-04-15T14:02:03.734Z,2.00
2018-04-15T14:04:30.388Z,2.80
2018-04-15T14:06:56.976Z,2.60
2018-04-15T14:09:24.074Z,2.33
2018-04-15T14:11:51.172Z,2.90
2018-04-15T14:14:17.797Z,2.63
2018-04-15T14:16:44.406Z,2.07
2018-04-15T14:19:11.055Z,2.33
2018-04-15T14:21:37.729Z,1.93
2018-04-15T14:24:04.350Z,2.40
2018-04-15T14:26:31.000Z,2.30
2018-04-15T14:28:57.626Z,1.83
2018-04-15T14:31:24.267Z,1.87
2018-04-15T14:33:50.919Z,2.20
2018-04-15T14:36:17.533Z,1.80
2018-04-15T14:38:44.147Z,1.80
2018-04-15T14:41:10.776Z,2.00
2018-04-15T14:43:37.398Z,2.00
2018-04-15T14:46:04.003Z,1.60
2018-04-15T14:48:30.716Z,2.23
2018-04-15T14:50:57.325Z,2.57
2018-04-15T14:53:24.240Z,2.50
2018-04-15T14:55:50.904Z,1.97
2018-04-15T14:58:17.520Z,1.80
2018-04-15T15:00:44.148Z,2.10
2018-04-15T15:03:10.944Z,2.80
2018-04-15T15:05:37.641Z,2.70
2018-04-15T15:08:04.365Z,2.63
2018-04-15T15:10:31.105Z,1.70
2018-04-15T15:12:58.041Z,2.00
2018-04-15T15:15:25.071Z,1.80
2018-04-15T15:17:51.699Z,2.03
2018-04-15T15:20:18.276Z,2.00
2018-04-15T15:22:44.903Z,2.10
2018-04-15T15:25:11.499Z,2.93
2018-04-15T15:27:38.113Z,2.57
2018-04-15T15:30:05.055Z,2.90
2018-04-15T15:32:31.650Z,3.00
2018-04-15T15:34:58.369Z,2.50
2018-04-15T15:37:25.013Z,2.93
2018-04-15T15:39:52.648Z,2.80
2018-04-15T15:42:19.243Z,2.83
2018-04-15T15:44:45.861Z,2.60
2018-04-15T15:47:12.577Z,3.20
2018-04-15T15:49:39.386Z,2.90
2018-04-15T15:52:06.025Z,7.57
2018-04-15T15:54:32.691Z,3.03
2018-04-15T15:56:59.288Z,3.70
2018-04-15T15:59:25.967Z,3.80
2018-04-15T16:01:52.768Z,3.00
2018-04-15T16:04:19.419Z,3.23
2018-04-15T16:06:46.029Z,2.80
2018-04-15T16:09:12.680Z,2.10
2018-04-15T16:11:39.455Z,2.30
2018-04-15T16:14:06.065Z,2.70
2018-04-15T16:16:32.646Z,4.00
2018-04-15T16:18:59.314Z,2.73
2018-04-15T16:21:25.944Z,2.70
2018-04-15T16:23:52.597Z,2.80
2018-04-15T16:26:19.595Z,2.67
2018-04-15T16:28:46.417Z,3.00
2018-04-15T16:31:13.051Z,2.83
2018-04-15T16:33:39.762Z,2.80
2018-04-15T16:36:06.384Z,2.70
2018-04-15T16:38:33.123Z,2.67
2018-04-15T16:40:59.743Z,2.73
2018-04-15T16:43:26.634Z,2.60
2018-04-15T16:45:53.701Z,3.10
2018-04-15T16:48:20.292Z,2.57
2018-04-15T16:50:47.094Z,2.70
2018-04-15T16:53:13.740Z,2.60
2018-04-15T16:55:40.361Z,2.60
2018-04-15T16:58:07.013Z,3.00
2018-04-15T17:00:33.691Z,2.93
2018-04-15T17:03:00.443Z,3.30
2018-04-15T17:05:27.153Z,2.67
2018-04-15T17:07:53.796Z,2.73
2018-04-15T17:10:20.491Z,2.87
2018-04-15T17:12:47.182Z,2.80
2018-04-15T17:15:13.810Z,2.93
2018-04-15T17:17:40.801Z,3.13
2018-04-15T17:20:08.259Z,2.93
2018-04-15T17:22:34.907Z,3.30
2018-04-15T17:25:01.645Z,3.30
2018-04-15T17:27:28.846Z,3.10
2018-04-15T17:29:55.632Z,3.50
2018-04-15T17:32:22.208Z,4.03
2018-04-15T17:34:49.014Z,3.70
2018-04-15T17:37:15.654Z,3.30
2018-04-15T17:39:42.360Z,3.90
2018-04-15T17:42:10.254Z,3.60
2018-04-15T17:44:37.947Z,3.67
2018-04-15T17:47:05.904Z,3.90
2018-04-15T17:49:34.448Z,4.00
2018-04-15T17:52:01.082Z,3.70
2018-04-15T17:54:30.457Z,4.67
2018-04-15T17:56:58.610Z,5.00
2018-04-15T17:59:28.725Z,5.97
2018-04-15T18:01:55.341Z,4.70
2018-04-15T18:04:21.989Z,5.43
2018-04-15T18:06:48.631Z,5.67
2018-04-15T18:09:15.511Z,4.40
2018-04-15T18:11:42.191Z,4.73
2018-04-15T18:14:08.862Z,5.70
2018-04-15T18:16:35.535Z,5.37
2018-04-15T18:19:02.335Z,5.37
2018-04-15T18:21:28.992Z,4.73
2018-04-15T18:23:55.617Z,4.40
2018-04-15T18:26:22.250Z,4.47
2018-04-15T18:28:48.968Z,3.97
2018-04-15T18:31:15.643Z,4.10
2018-04-15T18:33:42.642Z,4.17
2018-04-15T18:36:09.417Z,4.90
2018-04-15T18:38:36.070Z,4.30
2018-04-15T18:41:02.766Z,4.37
2018-04-15T18:43:30.001Z,4.10
2018-04-15T18:45:57.947Z,6.73
2018-04-15T18:48:24.702Z,6.50
2018-04-15T18:50:51.402Z,5.90
2018-04-15T18:53:18.309Z,6.17
2018-04-15T18:55:45.040Z,5.00
2018-04-15T18:58:11.745Z,5.60
2018-04-15T19:00:38.559Z,4.93
2018-04-15T19:03:05.254Z,4.40
2018-04-15T19:05:31.913Z,4.40
2018-04-15T19:07:58.542Z,4.03
2018-04-15T19:10:25.191Z,3.90
2018-04-15T19:12:52.116Z,5.27
2018-04-15T19:15:18.792Z,3.93
2018-04-15T19:17:46.448Z,5.40
2018-04-15T19:20:13.236Z,5.30
2018-04-15T19:22:40.353Z,5.20
2018-04-15T19:25:07.197Z,4.83
2018-04-15T19:27:33.883Z,4.70
2018-04-15T19:30:00.521Z,4.83
2018-04-15T19:32:27.396Z,4.83
2018-04-15T19:34:54.049Z,5.00
2018-04-15T19:37:21.588Z,5.10
2018-04-15T19:39:48.229Z,5.87
2018-04-15T19:42:14.853Z,4.80
2018-04-15T19:44:41.551Z,4.60
2018-04-15T19:47:08.203Z,7.07
2018-04-15T19:49:34.800Z,5.70
2018-04-15T19:52:01.539Z,4.03
2018-04-15T19:54:28.204Z,4.43
2018-04-15T19:56:54.962Z,4.20
2018-04-15T19:59:21.756Z,4.23
2018-04-15T20:01:48.399Z,3.60
2018-04-15T20:04:15.241Z,3.83
2018-04-15T20:06:41.930Z,3.73
2018-04-15T20:09:08.761Z,4.00
2018-04-15T20:11:35.480Z,3.40
2018-04-15T20:14:02.321Z,4.60
2018-04-15T20:16:28.915Z,4.43
2018-04-15T20:18:55.531Z,3.60
2018-04-15T20:21:22.170Z,2.77
2018-04-15T20:23:48.790Z,3.43
2018-04-15T20:26:18.470Z,3.07
2018-04-15T20:28:45.120Z,2.77
2018-04-15T20:31:11.849Z,2.40
2018-04-15T20:33:38.561Z,2.87
2018-04-15T20:36:05.152Z,3.40
2018-04-15T20:38:31.815Z,3.27
2018-04-15T20:40:58.505Z,2.47
2018-04-15T20:43:25.174Z,3.40
2018-04-15T20:45:52.147Z,3.40
2018-04-15T20:48:18.818Z,3.03
2018-04-15T20:50:45.521Z,3.30
2018-04-15T20:53:12.203Z,3.50
2018-04-15T20:55:38.878Z,3.57
2018-04-15T20:58:05.654Z,3.93
2018-04-15T21:00:32.287Z,4.17
2018-04-15T21:02:58.949Z,3.50
2018-04-15T21:05:25.604Z,4.27
2018-04-15T21:07:52.246Z,4.00
2018-04-15T21:10:18.899Z,3.43
2018-04-15T21:12:45.490Z,3.20
2018-04-15T21:15:12.235Z,3.60
2018-04-15T21:17:38.872Z,3.73
2018-04-15T21:20:05.490Z,3.50
2018-04-15T21:22:32.190Z,3.60
2018-04-15T21:24:58.840Z,2.63
2018-04-15T21:27:25.564Z,2.07
2018-04-15T21:29:52.285Z,2.10
2018-04-15T21:32:18.914Z,2.00
2018-04-15T21:34:45.572Z,2.00
2018-04-15T21:37:12.202Z,1.63
2018-04-15T21:39:38.915Z,1.50
2018-04-15T21:42:05.607Z,1.60
2018-04-15T21:44:32.608Z,1.20
2018-04-15T21:46:59.239Z,1.40
2018-04-15T21:49:25.815Z,1.20
2018-04-15T21:51:52.442Z,1.47
2018-04-15T21:54:19.099Z,1.50
2018-04-15T21:56:45.707Z,1.60
2018-04-15T21:59:12.270Z,1.70
2018-04-15T22:01:38.954Z,1.47
2018-04-15T22:04:05.545Z,1.40
2018-04-15T22:06:32.222Z,1.60
2018-04-15T22:08:58.810Z,1.30
2018-04-15T22:11:31.303Z,1.80
2018-04-15T22:13:57.915Z,1.67
2018-04-15T22:16:24.805Z,1.70
2018-04-15T22:18:51.401Z,1.70
2018-04-15T22:21:18.036Z,1.77
2018-04-15T22:23:44.629Z,1.80
2018-04-15T22:26:11.271Z,2.40
2018-04-15T22:28:37.843Z,1.60
2018-04-15T22:31:04.470Z,1.90
2018-04-15T22:33:31.111Z,1.63
2018-04-15T22:35:57.741Z,1.73
2018-04-15T22:38:24.348Z,1.80
2018-04-15T22:40:50.959Z,2.23
2018-04-15T22:43:17.607Z,1.93
2018-04-15T22:45:44.192Z,1.50
2018-04-15T22:48:10.827Z,1.50
2018-04-15T22:50:37.693Z,1.70
2018-04-15T22:53:04.288Z,1.40
2018-04-15T22:55:30.932Z,1.80
2018-04-15T22:57:57.625Z,1.70
2018-04-15T23:00:24.252Z,1.43
2018-04-15T23:02:50.864Z,2.00
2018-04-15T23:05:17.533Z,1.73
2018-04-15T23:07:44.135Z,1.70
2018-04-15T23:10:10.719Z,1.90
2018-04-15T23:12:37.347Z,1.60
2018-04-15T23:15:04.408Z,2.40
2018-04-15T23:17:31.046Z,1.77
2018-04-15T23:19:57.717Z,1.77
2018-04-15T23:22:24.362Z,1.30
2018-04-15T23:24:50.960Z,2.00
2018-04-15T23:27:17.592Z,1.73
2018-04-15T23:29:44.231Z,1.90
2018-04-15T23:32:10.830Z,1.77
2018-04-15T23:34:37.512Z,1.60
2018-04-15T23:37:04.179Z,1.80
2018-04-15T23:39:30.826Z,1.70
2018-04-15T23:41:57.391Z,1.50
2018-04-15T23:44:23.976Z,1.60
2018-04-15T23:46:50.595Z,1.50
2018-04-15T23:49:17.198Z,1.53
2018-04-15T23:51:43.808Z,1.63
2018-04-15T23:54:10.428Z,1.70
2018-04-15T23:56:37.043Z,1.67
2018-04-15T23:59:03.653Z,1.90
